createdAt,value
2019-05-19T00:00:43.047Z,8.80
2019-05-19T00:03:11.537Z,7.25
2019-05-19T00:05:40.074Z,7.95
2019-05-19T00:08:08.551Z,6.70
2019-05-19T00:10:37.112Z,6.47
2019-05-19T00:13:05.723Z,6.83
2019-05-19T00:15:34.366Z,5.60
2019-05-19T00:18:02.908Z,6.05
2019-05-19T00:20:31.483Z,6.72
2019-05-19T00:22:59.979Z,5.70
2019-05-19T00:25:28.760Z,6.97
2019-05-19T00:27:57.307Z,6.53
2019-05-19T00:30:25.866Z,7.45
2019-05-19T00:32:54.338Z,6.47
2019-05-19T00:35:22.911Z,6.83
2019-05-19T00:37:51.461Z,7.25
2019-05-19T00:40:20.116Z,7.33
2019-05-19T00:42:48.597Z,6.85
2019-05-19T00:45:17.244Z,7.50
2019-05-19T00:47:45.856Z,7.35
2019-05-19T00:50:14.595Z,8.35
2019-05-19T00:52:43.142Z,8.40
2019-05-19T00:55:11.781Z,8.55
2019-05-19T00:57:40.495Z,8.45
2019-05-19T01:00:09.801Z,9.43
2019-05-19T01:02:38.331Z,9.13
2019-05-19T01:05:07.940Z,10.85
2019-05-19T01:07:36.882Z,10.88
2019-05-19T01:10:07.585Z,9.80
2019-05-19T01:12:36.123Z,9.80
2019-05-19T01:15:06.649Z,10.03
2019-05-19T01:17:35.192Z,9.73
2019-05-19T01:20:04.826Z,9.50
2019-05-19T01:22:33.305Z,10.43
2019-05-19T01:25:01.892Z,10.58
2019-05-19T01:27:30.411Z,10.82
2019-05-19T01:29:58.893Z,9.90
2019-05-19T01:32:27.533Z,10.90
2019-05-19T01:34:56.032Z,11.33
2019-05-19T01:37:24.557Z,10.72
2019-05-19T01:39:53.112Z,10.08
2019-05-19T01:42:21.584Z,11.12
2019-05-19T01:44:50.077Z,10.80
2019-05-19T01:47:18.544Z,8.40
2019-05-19T01:49:47.036Z,11.50
2019-05-19T01:52:15.507Z,12.00
2019-05-19T01:54:44.002Z,11.93
2019-05-19T01:57:12.541Z,9.75
2019-05-19T01:59:41.180Z,12.28
2019-05-19T02:02:09.653Z,9.48
2019-05-19T02:04:38.152Z,10.65
2019-05-19T02:07:06.711Z,10.05
2019-05-19T02:09:35.272Z,10.40
2019-05-19T02:12:03.929Z,12.45
2019-05-19T02:14:32.398Z,9.83
2019-05-19T02:17:00.970Z,10.68
2019-05-19T02:19:29.446Z,16.12
2019-05-19T02:21:58.014Z,10.65
2019-05-19T02:24:26.485Z,9.20
2019-05-19T02:26:54.975Z,10.43
2019-05-19T02:29:23.513Z,9.78
2019-05-19T02:31:52.023Z,10.70
2019-05-19T02:34:20.574Z,11.50
2019-05-19T02:36:49.138Z,11.57
2019-05-19T02:39:17.761Z,12.13
2019-05-19T02:41:49.161Z,12.65
2019-05-19T02:44:19.697Z,14.00
2019-05-19T02:46:50.807Z,14.95
2019-05-19T02:49:20.297Z,15.70
2019-05-19T02:51:51.143Z,14.28
2019-05-19T02:54:20.833Z,13.68
2019-05-19T02:56:50.649Z,13.18
2019-05-19T02:59:20.439Z,13.22
2019-05-19T03:02:02.497Z,11.28
2019-05-19T03:04:31.047Z,14.10
2019-05-19T03:06:59.681Z,12.50
2019-05-19T03:09:28.304Z,11.00
2019-05-19T03:11:56.867Z,13.60
2019-05-19T03:14:25.339Z,10.30
2019-05-19T03:16:53.837Z,12.47
2019-05-19T03:19:22.508Z,12.55
2019-05-19T03:21:51.023Z,12.25
2019-05-19T03:24:19.573Z,16.10
2019-05-19T03:26:48.543Z,14.60
2019-05-19T03:29:18.733Z,13.85
2019-05-19T03:32:03.786Z,11.08
2019-05-19T03:34:32.349Z,12.25
2019-05-19T03:37:00.922Z,11.80
2019-05-19T03:39:29.484Z,13.58
2019-05-19T03:41:58.053Z,12.40
2019-05-19T03:44:26.605Z,11.83
2019-05-19T03:46:55.173Z,13.05
2019-05-19T03:49:23.651Z,12.53
2019-05-19T03:51:52.153Z,11.25
2019-05-19T03:54:20.700Z,11.00
2019-05-19T03:56:49.276Z,10.15
2019-05-19T03:59:17.835Z,11.18
2019-05-19T04:01:46.412Z,10.00
2019-05-19T04:04:14.956Z,12.47
2019-05-19T04:06:43.531Z,14.03
2019-05-19T04:09:12.094Z,13.58
2019-05-19T04:11:40.665Z,12.70
2019-05-19T04:14:09.218Z,12.65
2019-05-19T04:16:37.768Z,14.45
2019-05-19T04:19:06.353Z,14.75
2019-05-19T04:21:48.397Z,17.17
2019-05-19T04:24:05.116Z,17.52
2019-05-19T04:26:33.664Z,24.25
2019-05-19T04:29:02.250Z,22.80
2019-05-19T04:31:30.818Z,24.47
2019-05-19T04:33:59.379Z,26.85
2019-05-19T04:36:27.944Z,26.15
2019-05-19T04:38:56.509Z,28.73
2019-05-19T04:41:24.992Z,26.87
2019-05-19T04:43:53.570Z,28.85
2019-05-19T04:46:22.121Z,28.32
2019-05-19T04:48:50.625Z,29.48
2019-05-19T04:51:19.182Z,28.47
2019-05-19T04:53:47.754Z,25.48
2019-05-19T04:56:19.522Z,24.00
2019-05-19T04:58:46.531Z,22.98
2019-05-19T05:01:15.085Z,24.98
2019-05-19T05:03:43.595Z,25.48
2019-05-19T05:06:12.162Z,23.32
2019-05-19T05:08:40.804Z,24.60
2019-05-19T05:11:09.377Z,22.95
2019-05-19T05:13:37.877Z,22.73
2019-05-19T05:16:06.366Z,26.20
2019-05-19T05:18:34.881Z,23.15
2019-05-19T05:21:03.433Z,21.60
2019-05-19T05:23:32.010Z,24.82
2019-05-19T05:26:00.498Z,23.38
2019-05-19T05:28:28.997Z,22.00
2019-05-19T05:30:57.476Z,21.87
2019-05-19T05:33:26.062Z,26.30
2019-05-19T05:35:54.601Z,23.67
2019-05-19T05:38:23.168Z,23.40
2019-05-19T05:40:51.672Z,22.60
2019-05-19T05:43:20.177Z,20.85
2019-05-19T05:45:48.658Z,20.45
2019-05-19T05:48:17.229Z,19.17
2019-05-19T05:50:45.788Z,21.20
2019-05-19T05:53:14.373Z,22.95
2019-05-19T05:55:42.924Z,20.15
2019-05-19T05:58:11.502Z,23.10
2019-05-19T06:00:39.973Z,21.57
2019-05-19T06:03:08.471Z,20.55
2019-05-19T06:05:37.019Z,23.07
2019-05-19T06:08:05.598Z,23.30
2019-05-19T06:10:34.232Z,23.67
2019-05-19T06:13:02.713Z,23.18
2019-05-19T06:15:31.232Z,21.68
2019-05-19T06:17:59.843Z,29.77
2019-05-19T06:20:28.414Z,22.95
2019-05-19T06:22:57.355Z,21.87
2019-05-19T06:25:26.155Z,23.45
2019-05-19T06:27:54.755Z,21.40
2019-05-19T06:30:23.331Z,22.22
2019-05-19T06:32:55.945Z,21.70
2019-05-19T06:35:25.207Z,21.45
2019-05-19T06:37:53.762Z,18.87
2019-05-19T06:40:22.483Z,18.60
2019-05-19T06:42:51.034Z,16.93
2019-05-19T06:45:19.849Z,18.10
2019-05-19T06:47:48.331Z,15.78
2019-05-19T06:50:17.178Z,18.80
2019-05-19T06:52:45.730Z,16.73
2019-05-19T06:55:14.628Z,14.43
2019-05-19T06:57:43.177Z,15.48
2019-05-19T07:00:12.437Z,12.43
2019-05-19T07:02:41.079Z,13.55
2019-05-19T07:05:09.770Z,12.28
2019-05-19T07:07:38.250Z,11.35
2019-05-19T07:10:08.200Z,12.43
2019-05-19T07:12:36.748Z,11.88
2019-05-19T07:15:09.022Z,10.88
2019-05-19T07:17:37.505Z,11.43
2019-05-19T07:20:06.245Z,12.98
2019-05-19T07:22:37.603Z,11.90
2019-05-19T07:25:07.285Z,11.97
2019-05-19T07:27:35.765Z,11.65
2019-05-19T07:30:08.468Z,10.32
2019-05-19T07:32:36.950Z,14.28
2019-05-19T07:35:06.857Z,9.50
2019-05-19T07:37:35.330Z,9.28
2019-05-19T07:40:05.059Z,8.95
2019-05-19T07:42:33.687Z,7.85
2019-05-19T07:45:02.257Z,8.28
2019-05-19T07:47:30.810Z,7.30
2019-05-19T07:49:59.314Z,7.12
2019-05-19T07:52:27.871Z,7.08
2019-05-19T07:54:56.437Z,6.95
2019-05-19T07:57:24.905Z,6.08
2019-05-19T07:59:53.409Z,6.80
2019-05-19T08:02:21.980Z,6.05
2019-05-19T08:04:50.544Z,6.45
2019-05-19T08:07:19.070Z,5.30
2019-05-19T08:09:47.597Z,5.17
2019-05-19T08:12:16.246Z,4.95
2019-05-19T08:14:44.818Z,3.92
2019-05-19T08:17:13.437Z,4.62
2019-05-19T08:19:42.018Z,4.72
2019-05-19T08:22:10.557Z,4.15
2019-05-19T08:24:39.030Z,4.42
2019-05-19T08:27:07.517Z,4.12
2019-05-19T08:29:35.993Z,5.05
2019-05-19T08:32:04.557Z,4.50
2019-05-19T08:34:33.110Z,5.33
2019-05-19T08:37:02.497Z,7.60
2019-05-19T08:39:31.049Z,10.68
2019-05-19T08:41:59.614Z,5.60
2019-05-19T08:44:28.171Z,5.22
2019-05-19T08:46:56.764Z,5.60
2019-05-19T08:49:25.379Z,5.00
2019-05-19T08:51:53.900Z,5.08
2019-05-19T08:54:22.689Z,6.20
2019-05-19T08:56:51.273Z,4.90
2019-05-19T08:59:19.846Z,4.67
2019-05-19T09:01:48.428Z,5.58
2019-05-19T09:04:16.967Z,4.67
2019-05-19T09:06:45.545Z,5.55
2019-05-19T09:09:14.099Z,5.42
2019-05-19T09:11:42.679Z,5.30
2019-05-19T09:14:11.225Z,5.60
2019-05-19T09:16:39.813Z,5.75
2019-05-19T09:19:08.362Z,6.37
2019-05-19T09:21:36.953Z,5.67
2019-05-19T09:24:05.507Z,5.08
2019-05-19T09:26:34.321Z,6.00
2019-05-19T09:29:02.873Z,5.87
2019-05-19T09:31:31.693Z,6.30
2019-05-19T09:34:01.874Z,6.00
2019-05-19T09:36:30.449Z,6.20
2019-05-19T09:38:58.996Z,5.95
2019-05-19T09:41:27.565Z,5.62
2019-05-19T09:43:57.149Z,5.42
2019-05-19T09:46:25.670Z,5.05
2019-05-19T09:49:11.880Z,5.40
2019-05-19T09:51:40.448Z,6.00
2019-05-19T09:54:08.998Z,5.87
2019-05-19T09:56:37.577Z,5.85
2019-05-19T09:59:06.129Z,5.37
2019-05-19T10:01:34.675Z,6.03
2019-05-19T10:04:03.227Z,5.17
2019-05-19T10:06:31.801Z,6.42
2019-05-19T10:09:01.949Z,5.87
2019-05-19T10:11:36.440Z,5.22
2019-05-19T10:14:05.416Z,6.20
2019-05-19T10:16:33.910Z,5.67
2019-05-19T10:19:02.706Z,5.92
2019-05-19T10:21:31.278Z,7.08
2019-05-19T10:23:59.836Z,5.85
2019-05-19T10:26:28.396Z,6.33
2019-05-19T10:28:56.873Z,5.95
2019-05-19T10:31:25.448Z,5.53
2019-05-19T10:33:54.001Z,6.25
2019-05-19T10:36:22.550Z,5.90
2019-05-19T10:38:51.117Z,6.20
2019-05-19T10:41:19.608Z,7.25
2019-05-19T10:43:49.809Z,7.75
2019-05-19T10:46:18.352Z,7.72
2019-05-19T10:48:46.851Z,7.22
2019-05-19T10:51:15.405Z,7.92
2019-05-19T10:53:43.893Z,7.58
2019-05-19T10:56:12.433Z,7.15
2019-05-19T10:58:41.013Z,7.85
2019-05-19T11:01:09.663Z,6.22
2019-05-19T11:03:38.211Z,6.60
2019-05-19T11:06:06.765Z,7.97
2019-05-19T11:08:35.253Z,7.20
2019-05-19T11:11:03.735Z,7.70
2019-05-19T11:13:32.412Z,7.58
2019-05-19T11:16:00.968Z,9.15
2019-05-19T11:18:29.222Z,8.93
2019-05-19T11:20:57.794Z,7.47
2019-05-19T11:23:26.299Z,7.72
2019-05-19T11:25:54.905Z,9.13
2019-05-19T11:28:23.489Z,7.58
2019-05-19T11:30:52.047Z,8.15
2019-05-19T11:33:20.615Z,7.67
2019-05-19T11:35:49.241Z,7.40
2019-05-19T11:38:17.803Z,8.35
2019-05-19T11:40:46.361Z,7.47
2019-05-19T11:43:15.135Z,9.08
2019-05-19T11:45:43.686Z,9.15
2019-05-19T11:48:12.265Z,8.00
2019-05-19T11:50:42.207Z,11.08
2019-05-19T11:53:10.890Z,9.40
2019-05-19T11:55:39.440Z,8.25
2019-05-19T11:58:08.023Z,7.35
2019-05-19T12:00:36.578Z,7.35
2019-05-19T12:03:05.065Z,8.35
2019-05-19T12:05:33.717Z,7.33
2019-05-19T12:08:02.274Z,7.78
2019-05-19T12:10:30.839Z,6.47
2019-05-19T12:12:59.438Z,6.20
2019-05-19T12:15:27.996Z,8.50
2019-05-19T12:17:56.569Z,6.22
2019-05-19T12:20:25.124Z,6.08
2019-05-19T12:22:53.708Z,7.42
2019-05-19T12:25:22.277Z,6.15
2019-05-19T12:27:50.898Z,6.42
2019-05-19T12:30:21.311Z,8.33
2019-05-19T12:32:49.969Z,6.95
2019-05-19T12:35:18.754Z,7.67
2019-05-19T12:37:47.325Z,6.20
2019-05-19T12:40:16.130Z,7.60
2019-05-19T12:42:44.690Z,6.35
2019-05-19T12:45:13.702Z,5.72
2019-05-19T12:47:44.198Z,5.95
2019-05-19T12:50:13.400Z,6.25
2019-05-19T12:52:43.166Z,5.92
2019-05-19T12:55:12.076Z,4.95
2019-05-19T12:57:40.650Z,6.53
2019-05-19T13:00:09.894Z,5.67
2019-05-19T13:02:38.589Z,5.47
2019-05-19T13:05:07.538Z,5.10
2019-05-19T13:07:36.084Z,4.92
2019-05-19T13:10:06.401Z,5.00
2019-05-19T13:12:34.962Z,4.50
2019-05-19T13:15:05.611Z,5.05
2019-05-19T13:17:34.238Z,5.75
2019-05-19T13:20:02.962Z,5.55
2019-05-19T13:22:31.465Z,5.80
2019-05-19T13:25:00.080Z,5.85
2019-05-19T13:27:28.638Z,7.72
2019-05-19T13:29:57.212Z,5.85
2019-05-19T13:32:25.892Z,4.78
2019-05-19T13:34:54.470Z,5.03
2019-05-19T13:37:23.014Z,4.72
2019-05-19T13:39:51.606Z,3.92
2019-05-19T13:42:20.173Z,4.60
2019-05-19T13:44:48.813Z,4.90
2019-05-19T13:47:17.291Z,5.33
2019-05-19T13:49:45.994Z,5.50
2019-05-19T13:52:14.482Z,4.03
2019-05-19T13:54:43.278Z,6.45
2019-05-19T13:57:12.890Z,5.10
2019-05-19T13:59:41.507Z,5.28
2019-05-19T14:02:10.126Z,4.67
2019-05-19T14:04:38.696Z,4.95
2019-05-19T14:07:07.250Z,5.10
2019-05-19T14:09:35.821Z,4.37
2019-05-19T14:12:04.440Z,6.42
2019-05-19T14:14:33.018Z,5.72
2019-05-19T14:17:01.582Z,4.25
2019-05-19T14:19:30.083Z,4.40
2019-05-19T14:21:58.636Z,4.03
2019-05-19T14:24:27.211Z,4.40
2019-05-19T14:26:55.768Z,5.22
2019-05-19T14:29:24.362Z,4.80
2019-05-19T14:31:52.922Z,4.72
2019-05-19T14:34:21.564Z,4.78
2019-05-19T14:36:50.132Z,4.37
2019-05-19T14:39:18.683Z,5.42
2019-05-19T14:41:48.885Z,5.15
2019-05-19T14:44:17.365Z,8.50
2019-05-19T14:46:45.939Z,4.92
2019-05-19T14:49:14.481Z,2.27
2019-05-19T14:51:43.013Z,2.72
2019-05-19T14:54:11.551Z,6.55
2019-05-19T14:56:40.132Z,3.37
2019-05-19T14:59:08.730Z,3.87
2019-05-19T15:01:37.495Z,4.62
2019-05-19T15:04:06.064Z,5.05
2019-05-19T15:06:34.601Z,3.22
2019-05-19T15:09:03.812Z,4.25
2019-05-19T15:11:32.537Z,2.40
2019-05-19T15:14:01.104Z,2.37
2019-05-19T15:16:29.739Z,2.45
2019-05-19T15:18:58.957Z,4.12
2019-05-19T15:21:27.529Z,3.15
2019-05-19T15:23:56.077Z,2.92
2019-05-19T15:26:24.596Z,2.12
2019-05-19T15:28:53.133Z,3.17
2019-05-19T15:31:21.698Z,2.70
2019-05-19T15:33:53.066Z,3.50
2019-05-19T15:36:24.414Z,3.55
2019-05-19T15:38:52.881Z,7.03
2019-05-19T15:41:21.466Z,4.35
2019-05-19T15:43:50.026Z,8.15
2019-05-19T15:46:18.678Z,6.28
2019-05-19T15:48:47.149Z,5.33
2019-05-19T15:51:27.521Z,4.42
2019-05-19T15:53:45.923Z,3.00
2019-05-19T15:56:14.485Z,3.30
2019-05-19T15:58:43.041Z,3.47
2019-05-19T16:01:11.541Z,3.65
2019-05-19T16:03:40.101Z,3.50
2019-05-19T16:06:08.664Z,3.50
2019-05-19T16:08:37.225Z,3.27
2019-05-19T16:11:05.782Z,3.50
2019-05-19T16:13:34.269Z,3.55
2019-05-19T16:16:02.855Z,3.52
2019-05-19T16:18:31.412Z,4.28
2019-05-19T16:20:59.961Z,7.95
2019-05-19T16:23:28.467Z,4.67
2019-05-19T16:25:57.019Z,5.30
2019-05-19T16:28:30.687Z,5.35
2019-05-19T16:30:55.729Z,22.32
2019-05-19T16:33:24.310Z,22.22
2019-05-19T16:35:52.873Z,13.08
2019-05-19T16:38:21.445Z,8.53
2019-05-19T16:40:49.924Z,7.12
2019-05-19T16:43:18.486Z,5.53
2019-05-19T16:45:47.429Z,5.15
2019-05-19T16:48:16.096Z,5.40
2019-05-19T16:50:44.643Z,6.05
2019-05-19T16:53:13.334Z,5.83
2019-05-19T16:55:41.893Z,6.12
2019-05-19T16:58:20.548Z,7.15
2019-05-19T17:00:40.587Z,7.97
2019-05-19T17:03:09.157Z,7.80
2019-05-19T17:05:37.713Z,7.78
2019-05-19T17:08:06.417Z,7.20
2019-05-19T17:10:35.146Z,6.70
2019-05-19T17:13:03.718Z,7.55
2019-05-19T17:15:32.201Z,7.83
2019-05-19T17:18:01.008Z,8.25
2019-05-19T17:20:31.037Z,7.62
2019-05-19T17:22:59.720Z,7.65
2019-05-19T17:25:28.336Z,6.90
2019-05-19T17:27:59.602Z,7.65
2019-05-19T17:30:27.128Z,11.40
2019-05-19T17:32:55.696Z,13.72
2019-05-19T17:35:24.321Z,9.63
2019-05-19T17:37:52.978Z,7.35
2019-05-19T17:40:21.777Z,6.30
2019-05-19T17:42:50.610Z,7.28
2019-05-19T17:45:19.221Z,5.90
2019-05-19T17:47:47.721Z,4.83
2019-05-19T17:50:19.332Z,5.50
2019-05-19T17:52:47.845Z,7.15
2019-05-19T17:55:16.534Z,4.90
2019-05-19T17:57:46.052Z,5.85
2019-05-19T18:00:16.242Z,5.85
2019-05-19T18:02:44.732Z,5.95
2019-05-19T18:05:13.350Z,6.17
2019-05-19T18:07:41.931Z,6.20
2019-05-19T18:10:10.666Z,7.42
2019-05-19T18:12:39.235Z,6.95
2019-05-19T18:15:07.941Z,7.72
2019-05-19T18:17:36.438Z,7.60
2019-05-19T18:20:06.666Z,8.53
2019-05-19T18:22:35.244Z,6.37
2019-05-19T18:25:04.632Z,7.22
2019-05-19T18:27:33.230Z,9.18
2019-05-19T18:30:01.796Z,9.93
2019-05-19T18:32:30.340Z,8.63
2019-05-19T18:34:58.841Z,10.70
2019-05-19T18:37:27.411Z,8.85
2019-05-19T18:39:55.982Z,9.20
2019-05-19T18:42:24.776Z,7.25
2019-05-19T18:44:53.412Z,7.42
2019-05-19T18:47:21.886Z,8.18
2019-05-19T18:49:50.381Z,10.80
2019-05-19T18:52:18.927Z,7.78
2019-05-19T18:54:47.493Z,8.95
2019-05-19T18:57:16.061Z,8.15
2019-05-19T18:59:47.513Z,8.08
2019-05-19T19:02:15.241Z,10.58
2019-05-19T19:04:43.737Z,12.18
2019-05-19T19:07:12.289Z,13.65
2019-05-19T19:09:40.862Z,12.23
2019-05-19T19:12:09.425Z,9.48
2019-05-19T19:14:37.990Z,8.73
2019-05-19T19:17:06.605Z,8.65
2019-05-19T19:19:35.345Z,6.60
2019-05-19T19:22:03.894Z,7.30
2019-05-19T19:24:32.455Z,9.65
2019-05-19T19:27:00.927Z,7.10
2019-05-19T19:29:29.748Z,6.20
2019-05-19T19:31:58.299Z,8.78
2019-05-19T19:34:26.869Z,7.42
2019-05-19T19:36:55.417Z,6.80
2019-05-19T19:39:23.985Z,6.83
2019-05-19T19:41:52.448Z,7.45
2019-05-19T19:44:20.945Z,8.65
2019-05-19T19:46:49.430Z,9.98
2019-05-19T19:49:17.997Z,8.63
2019-05-19T19:51:46.537Z,8.35
2019-05-19T19:54:15.034Z,8.40
2019-05-19T19:56:43.829Z,10.58
2019-05-19T19:59:12.334Z,11.57
2019-05-19T20:01:40.883Z,9.23
2019-05-19T20:04:11.387Z,9.58
2019-05-19T20:06:39.672Z,10.10
2019-05-19T20:09:08.285Z,9.30
2019-05-19T20:11:36.849Z,9.40
2019-05-19T20:14:05.865Z,8.23
2019-05-19T20:16:34.433Z,7.85
2019-05-19T20:19:02.912Z,8.43
2019-05-19T20:21:31.490Z,7.30
2019-05-19T20:23:59.975Z,7.72
2019-05-19T20:26:28.556Z,11.00
2019-05-19T20:28:57.109Z,8.70
2019-05-19T20:31:25.854Z,8.83
2019-05-19T20:33:54.402Z,7.67
2019-05-19T20:36:22.992Z,10.15
2019-05-19T20:38:51.530Z,9.08
2019-05-19T20:41:20.165Z,7.62
2019-05-19T20:43:48.709Z,9.25
2019-05-19T20:46:17.205Z,8.23
2019-05-19T20:48:45.682Z,8.35
2019-05-19T20:51:14.245Z,5.50
2019-05-19T20:53:42.709Z,6.70
2019-05-19T20:56:11.207Z,7.30
2019-05-19T20:58:39.749Z,7.37
2019-05-19T21:01:08.240Z,7.35
2019-05-19T21:03:36.717Z,7.45
2019-05-19T21:06:05.290Z,8.40
2019-05-19T21:08:33.839Z,8.40
2019-05-19T21:11:02.409Z,8.95
2019-05-19T21:13:30.891Z,7.37
2019-05-19T21:15:59.462Z,8.65
2019-05-19T21:18:28.027Z,7.17
2019-05-19T21:20:56.601Z,7.15
2019-05-19T21:23:25.171Z,9.05
2019-05-19T21:25:53.717Z,6.75
2019-05-19T21:28:22.194Z,6.72
2019-05-19T21:31:04.524Z,6.65
2019-05-19T21:33:20.953Z,8.30
2019-05-19T21:35:49.522Z,8.95
2019-05-19T21:38:18.074Z,12.25
2019-05-19T21:40:46.709Z,9.98
2019-05-19T21:43:15.185Z,10.88
2019-05-19T21:45:43.762Z,12.03
2019-05-19T21:48:12.325Z,10.95
2019-05-19T21:50:40.889Z,10.10
2019-05-19T21:53:09.353Z,9.88
2019-05-19T21:55:37.921Z,9.75
2019-05-19T21:58:06.388Z,8.78
2019-05-19T22:00:35.225Z,9.80
2019-05-19T22:03:03.912Z,9.55
2019-05-19T22:05:32.478Z,7.40
2019-05-19T22:08:02.654Z,7.00
2019-05-19T22:10:31.233Z,6.58
2019-05-19T22:12:59.705Z,6.83
2019-05-19T22:15:28.282Z,6.15
2019-05-19T22:17:56.763Z,6.83
2019-05-19T22:20:25.411Z,6.22
2019-05-19T22:22:53.962Z,5.05
2019-05-19T22:25:22.533Z,4.42
2019-05-19T22:27:51.010Z,3.80
2019-05-19T22:30:19.697Z,3.60
2019-05-19T22:32:48.260Z,6.50
2019-05-19T22:35:16.869Z,3.85
2019-05-19T22:37:45.441Z,3.87
2019-05-19T22:40:14.052Z,3.70
2019-05-19T22:42:42.545Z,4.03
2019-05-19T22:45:11.258Z,4.22
2019-05-19T22:47:39.834Z,3.33
2019-05-19T22:50:09.118Z,4.25
2019-05-19T22:52:37.694Z,5.30
2019-05-19T22:55:06.801Z,6.70
2019-05-19T22:57:35.296Z,5.35
2019-05-19T23:00:05.576Z,4.65
2019-05-19T23:02:34.077Z,5.20
2019-05-19T23:05:02.590Z,4.55
2019-05-19T23:07:31.150Z,4.28
2019-05-19T23:09:59.705Z,3.87
2019-05-19T23:12:28.305Z,5.65
2019-05-19T23:14:56.849Z,4.40
2019-05-19T23:17:25.416Z,4.55
2019-05-19T23:19:53.957Z,4.70
2019-05-19T23:22:22.448Z,5.53
2019-05-19T23:24:51.003Z,8.03
2019-05-19T23:27:19.576Z,6.35
2019-05-19T23:29:48.549Z,5.00
2019-05-19T23:32:17.099Z,5.78
2019-05-19T23:34:45.649Z,5.40
2019-05-19T23:37:14.461Z,6.35
2019-05-19T23:39:43.081Z,5.42
2019-05-19T23:42:11.632Z,4.97
2019-05-19T23:44:40.182Z,5.80
2019-05-19T23:47:08.751Z,5.65
2019-05-19T23:49:37.233Z,4.92
2019-05-19T23:52:05.733Z,4.80
2019-05-19T23:54:34.210Z,5.30
2019-05-19T23:57:02.769Z,4.22
2019-05-19T23:59:31.247Z,6.55
